Time;durP1;ratioP1;P1;durP2;ratioP2;P2;SDS_P1;SDS_P2;PMS_P1;PMS_P2;Temp;Humidity;BMP_temperature;BMP_pressure;BME280_temperature;BME280_humidity;BME280_pressure;Samples;Min_cycle;Max_cycle;Signal;HPM_P1;HPM_P2
2021/03/20 00:00:15;;;;;;;;;;;2.00;99.90;;;;;;6155360;23;19927;-68
2021/03/20 00:02:41;;;;;;;;;;;1.90;99.90;;;;;;6155562;23;19935;-69
2021/03/20 00:05:08;;;;;;;;;;;1.90;99.90;;;;;;6155598;23;19916;-68
2021/03/20 00:07:35;;;;;;;;;;;1.90;99.90;;;;;;6155400;23;19916;-69
2021/03/20 00:10:03;;;;;;;;;;;1.80;99.90;;;;;;6155423;23;19923;-69
2021/03/20 00:12:29;;;;;;;;;;;1.70;99.90;;;;;;6155206;23;19924;-67
2021/03/20 00:14:55;;;;;;;;;;;1.70;99.90;;;;;;6155507;23;19920;-68
2021/03/20 00:17:21;;;;;;;;;;;1.60;99.90;;;;;;6155281;23;19927;-68
2021/03/20 00:19:47;;;;;;;;;;;1.60;99.90;;;;;;6154768;23;20283;-67
2021/03/20 00:22:13;;;;;;;;;;;1.50;99.90;;;;;;6155506;23;19921;-68
2021/03/20 00:24:39;;;;;;;;;;;1.50;99.90;;;;;;6156970;23;19917;-69
2021/03/20 00:27:06;;;;;;;;;;;1.50;99.90;;;;;;6171662;23;19927;-68
2021/03/20 00:29:32;;;;;;;;;;;1.40;99.90;;;;;;6170126;23;19920;-68
2021/03/20 00:31:58;;;;;;;;;;;1.40;99.90;;;;;;6155532;23;19971;-68
2021/03/20 00:34:24;;;;;;;;;;;1.30;99.90;;;;;;6172173;23;19920;-69
2021/03/20 00:36:50;;;;;;;;;;;1.30;99.90;;;;;;6174513;23;19923;-68
2021/03/20 00:39:16;;;;;;;;;;;1.20;99.90;;;;;;6169110;23;19917;-69
2021/03/20 00:41:44;;;;;;;;;;;1.20;99.90;;;;;;6155237;23;19928;-68
2021/03/20 00:44:11;;;;;;;;;;;1.20;99.90;;;;;;6154895;23;19955;-69
2021/03/20 00:46:37;;;;;;;;;;;1.10;99.90;;;;;;6155325;23;20477;-68
2021/03/20 00:49:03;;;;;;;;;;;1.10;99.90;;;;;;6155347;23;20263;-68
2021/03/20 00:51:30;;;;;;;;;;;1.00;99.90;;;;;;6154799;23;20402;-68
2021/03/20 00:53:56;;;;;;;;;;;1.00;99.90;;;;;;6155121;23;19917;-69
2021/03/20 00:56:22;;;;;;;;;;;1.00;99.90;;;;;;6154134;23;19944;-69
2021/03/20 00:58:48;;;;;;;;;;;0.90;99.90;;;;;;6155039;23;19971;-68
2021/03/20 01:01:17;;;;;;;;;;;0.80;99.90;;;;;;6154579;23;20296;-69
2021/03/20 01:03:43;;;;;;;;;;;0.80;99.90;;;;;;6155032;23;20311;-68
2021/03/20 01:06:11;;;;;;;;;;;0.70;99.90;;;;;;6154734;23;19916;-68
2021/03/20 01:08:37;;;;;;;;;;;0.70;99.90;;;;;;6154984;23;19920;-69
2021/03/20 01:11:03;;;;;;;;;;;0.70;99.90;;;;;;6154792;23;19928;-68
2021/03/20 01:13:30;;;;;;;;;;;0.60;99.90;;;;;;6154948;23;19917;-69
2021/03/20 01:15:56;;;;;;;;;;;0.60;99.90;;;;;;6156094;23;19916;-69
2021/03/20 01:18:23;;;;;;;;;;;0.50;99.90;;;;;;6154645;23;19920;-69
2021/03/20 01:20:49;;;;;;;;;;;0.50;99.90;;;;;;6155251;23;20415;-68
2021/03/20 01:23:15;;;;;;;;;;;0.40;99.90;;;;;;6156253;23;19943;-68
2021/03/20 01:25:41;;;;;;;;;;;0.30;99.90;;;;;;6155568;23;19920;-68
2021/03/20 01:28:07;;;;;;;;;;;0.30;99.90;;;;;;6155251;23;19917;-67
2021/03/20 01:30:34;;;;;;;;;;;0.20;99.90;;;;;;6155210;23;19916;-67
2021/03/20 01:33:00;;;;;;;;;;;0.20;99.90;;;;;;6155445;23;19917;-68
2021/03/20 01:35:27;;;;;;;;;;;0.20;99.90;;;;;;6155304;23;19979;-68
2021/03/20 01:37:53;;;;;;;;;;;0.10;99.90;;;;;;6154786;23;19917;-68
2021/03/20 01:40:20;;;;;;;;;;;0.10;99.90;;;;;;6154938;23;19917;-67
2021/03/20 01:42:46;;;;;;;;;;;0.10;99.90;;;;;;6154799;23;19920;-67
2021/03/20 01:45:15;;;;;;;;;;;0.00;99.90;;;;;;6158083;23;20241;-67
2021/03/20 01:47:46;;;;;;;;;;;-0.10;99.90;;;;;;6156056;23;19917;-68
2021/03/20 01:50:14;;;;;;;;;;;-0.10;99.90;;;;;;6156509;23;19924;-67
2021/03/20 01:52:42;;;;;;;;;;;-0.10;99.90;;;;;;6156450;23;19947;-67
2021/03/20 01:55:09;;;;;;;;;;;-0.20;99.90;;;;;;6156488;23;20363;-68
2021/03/20 01:57:38;;;;;;;;;;;-0.30;99.90;;;;;;6156285;23;19921;-67
2021/03/20 02:00:07;;;;;;;;;;;-0.30;99.90;;;;;;6156637;23;19916;-69
2021/03/20 02:02:34;;;;;;;;;;;-0.30;99.90;;;;;;6156687;23;19923;-68
2021/03/20 02:05:00;;;;;;;;;;;-0.30;99.90;;;;;;6156213;23;19925;-67
2021/03/20 02:07:26;;;;;;;;;;;-0.40;99.90;;;;;;6156320;23;19920;-68
2021/03/20 02:09:53;;;;;;;;;;;-0.40;99.90;;;;;;6155836;23;19932;-68
2021/03/20 02:12:21;;;;;;;;;;;-0.40;99.90;;;;;;6156204;23;20358;-68
2021/03/20 02:14:53;;;;;;;;;;;-0.50;99.90;;;;;;6156442;23;20295;-67
2021/03/20 02:17:24;;;;;;;;;;;-0.50;99.90;;;;;;6156320;23;19923;-68
2021/03/20 02:20:00;;;;;;;;;;;-0.60;99.90;;;;;;6156395;23;20003;-68
2021/03/20 02:22:34;;;;;;;;;;;-0.60;99.90;;;;;;6156520;23;20252;-69
2021/03/20 02:25:13;;;;;;;;;;;-0.60;99.90;;;;;;6156370;23;20015;-68
2021/03/20 02:27:50;;;;;;;;;;;-0.70;99.90;;;;;;6156097;23;19924;-68
2021/03/20 02:30:35;;;;;;;;;;;-0.70;99.90;;;;;;6156641;23;19972;-68
2021/03/20 02:33:06;;;;;;;;;;;-0.70;99.90;;;;;;6156427;23;19916;-67
2021/03/20 02:35:35;;;;;;;;;;;-0.70;99.90;;;;;;6156143;23;20359;-68
2021/03/20 02:38:06;;;;;;;;;;;-0.70;99.90;;;;;;6155867;23;19917;-67
2021/03/20 02:40:35;;;;;;;;;;;-0.80;99.90;;;;;;6155649;23;19944;-68
2021/03/20 02:43:03;;;;;;;;;;;-0.70;99.90;;;;;;6156827;23;19916;-68
2021/03/20 02:45:31;;;;;;;;;;;-0.80;99.90;;;;;;6155743;23;19923;-67
2021/03/20 02:48:02;;;;;;;;;;;-0.80;99.90;;;;;;6155818;23;19917;-69
2021/03/20 02:50:32;;;;;;;;;;;-0.80;99.90;;;;;;6156217;23;19921;-68
2021/03/20 02:53:00;;;;;;;;;;;-0.90;99.90;;;;;;6156114;23;20337;-68
2021/03/20 02:55:30;;;;;;;;;;;-0.90;99.90;;;;;;6156196;23;19971;-68
2021/03/20 02:57:58;;;;;;;;;;;-0.90;99.90;;;;;;6155595;23;19917;-68
2021/03/20 03:00:25;;;;;;;;;;;-1.00;99.90;;;;;;6156343;23;19947;-68
2021/03/20 03:02:53;;;;;;;;;;;-1.00;99.90;;;;;;6156511;23;19916;-67
2021/03/20 03:05:21;;;;;;;;;;;-0.90;99.90;;;;;;6156460;23;19916;-68
2021/03/20 03:07:50;;;;;;;;;;;-0.90;99.90;;;;;;6155809;23;19928;-68
2021/03/20 03:10:19;;;;;;;;;;;-1.00;99.90;;;;;;6160837;23;19923;-68
2021/03/20 03:12:47;;;;;;;;;;;-1.00;99.90;;;;;;6161921;23;19924;-70
2021/03/20 03:15:15;;;;;;;;;;;-0.90;99.90;;;;;;6161729;23;19917;-68
2021/03/20 03:17:44;;;;;;;;;;;-1.00;99.90;;;;;;6161023;23;19916;-69
2021/03/20 03:20:11;;;;;;;;;;;-0.90;99.90;;;;;;6161953;23;19924;-68
2021/03/20 03:22:41;;;;;;;;;;;-1.00;99.90;;;;;;6162660;23;20303;-69
2021/03/20 03:25:10;;;;;;;;;;;-1.00;99.90;;;;;;6162609;23;19917;-69
2021/03/20 03:27:38;;;;;;;;;;;-1.00;99.90;;;;;;6161788;23;20114;-68
2021/03/20 03:30:05;;;;;;;;;;;-1.00;99.90;;;;;;6162290;23;20525;-69
2021/03/20 03:32:33;;;;;;;;;;;-1.00;99.90;;;;;;6162330;23;19936;-68
2021/03/20 03:35:02;;;;;;;;;;;-1.10;99.90;;;;;;6157483;23;19917;-68
2021/03/20 03:37:33;;;;;;;;;;;-1.10;99.90;;;;;;6155888;23;19916;-67
2021/03/20 03:40:04;;;;;;;;;;;-1.10;99.90;;;;;;6159565;23;19916;-70
2021/03/20 03:42:31;;;;;;;;;;;-1.10;99.90;;;;;;6160800;23;19917;-67
2021/03/20 03:44:57;;;;;;;;;;;-1.20;99.90;;;;;;6157523;23;19932;-69
2021/03/20 03:47:25;;;;;;;;;;;-1.20;99.90;;;;;;6155922;23;19921;-68
2021/03/20 03:49:53;;;;;;;;;;;-1.20;99.90;;;;;;6155550;23;20316;-69
2021/03/20 03:52:19;;;;;;;;;;;-1.20;99.90;;;;;;6155856;23;19921;-68
2021/03/20 03:54:48;;;;;;;;;;;-1.20;99.90;;;;;;6156107;23;19917;-67
2021/03/20 03:57:32;;;;;;;;;;;-1.30;99.90;;;;;;6156039;23;19923;-68
2021/03/20 04:00:09;;;;;;;;;;;-1.30;99.90;;;;;;6154669;23;20278;-70
2021/03/20 04:02:46;;;;;;;;;;;-1.40;99.90;;;;;;6155410;23;19917;-68
2021/03/20 04:05:14;;;;;;;;;;;-1.40;99.90;;;;;;6155507;23;19921;-69
2021/03/20 04:07:42;;;;;;;;;;;-1.40;99.90;;;;;;6155386;23;19917;-68
2021/03/20 04:10:14;;;;;;;;;;;-1.50;99.90;;;;;;6156647;23;19982;-69
2021/03/20 04:12:44;;;;;;;;;;;-1.50;99.90;;;;;;6162198;23;19924;-69
2021/03/20 04:15:17;;;;;;;;;;;-1.50;99.90;;;;;;6162886;23;19916;-68
2021/03/20 04:17:46;;;;;;;;;;;-1.50;99.90;;;;;;6166629;23;19920;-69
2021/03/20 04:20:17;;;;;;;;;;;-1.50;99.90;;;;;;6168154;23;20000;-69
2021/03/20 04:22:48;;;;;;;;;;;-1.50;99.90;;;;;;6160016;23;19924;-69
2021/03/20 04:25:18;;;;;;;;;;;-1.50;99.90;;;;;;6155583;23;19931;-68
2021/03/20 04:27:47;;;;;;;;;;;-1.60;99.90;;;;;;6171419;23;19920;-69
2021/03/20 04:30:16;;;;;;;;;;;-1.60;99.90;;;;;;6175618;23;19920;-68
2021/03/20 04:32:46;;;;;;;;;;;-1.60;99.90;;;;;;6168189;23;19927;-69
2021/03/20 04:35:14;;;;;;;;;;;-1.60;99.90;;;;;;6155472;23;19927;-68
2021/03/20 04:37:43;;;;;;;;;;;-1.70;99.90;;;;;;6155320;23;19923;-69
2021/03/20 04:40:24;;;;;;;;;;;-1.70;99.90;;;;;;6155902;23;19920;-69
2021/03/20 04:42:50;;;;;;;;;;;-1.70;99.90;;;;;;6159530;23;20012;-67
2021/03/20 04:45:24;;;;;;;;;;;-1.70;99.90;;;;;;6160112;23;19924;-68
2021/03/20 04:47:52;;;;;;;;;;;-1.80;99.90;;;;;;6154825;23;19920;-69
2021/03/20 04:50:19;;;;;;;;;;;-1.80;99.90;;;;;;6154744;23;19917;-67
2021/03/20 04:52:46;;;;;;;;;;;-1.80;99.90;;;;;;6154765;23;19916;-69
2021/03/20 04:55:13;;;;;;;;;;;-1.90;99.90;;;;;;6155094;23;19922;-67
2021/03/20 04:57:40;;;;;;;;;;;-1.90;99.90;;;;;;6154572;23;20336;-69
2021/03/20 05:00:10;;;;;;;;;;;-2.00;99.90;;;;;;6154854;23;19923;-68
2021/03/20 05:02:40;;;;;;;;;;;-2.00;99.90;;;;;;6155019;23;19924;-68
2021/03/20 05:05:08;;;;;;;;;;;-2.00;99.90;;;;;;6154768;23;19924;-69
2021/03/20 05:07:35;;;;;;;;;;;-2.00;99.90;;;;;;6154599;23;19960;-68
2021/03/20 05:10:01;;;;;;;;;;;-2.00;99.90;;;;;;6154532;23;20348;-68
2021/03/20 05:12:29;;;;;;;;;;;-2.00;99.90;;;;;;6154529;23;19920;-68
2021/03/20 05:14:59;;;;;;;;;;;-2.10;99.90;;;;;;6155059;23;19944;-69
2021/03/20 05:17:25;;;;;;;;;;;-2.10;99.90;;;;;;6154783;23;19920;-69
2021/03/20 05:19:53;;;;;;;;;;;-2.10;99.90;;;;;;6155555;23;19928;-68
2021/03/20 05:22:22;;;;;;;;;;;-2.10;99.90;;;;;;6155060;23;20263;-68
2021/03/20 05:24:48;;;;;;;;;;;-2.10;99.90;;;;;;6154805;23;19920;-69
2021/03/20 05:27:18;;;;;;;;;;;-2.10;99.90;;;;;;6154747;23;19916;-69
2021/03/20 05:29:43;;;;;;;;;;;-2.10;99.90;;;;;;6154860;23;20369;-68
2021/03/20 05:32:13;;;;;;;;;;;-2.20;99.90;;;;;;6155057;23;19917;-67
2021/03/20 05:34:40;;;;;;;;;;;-2.20;99.90;;;;;;6155733;23;20279;-67
2021/03/20 05:37:08;;;;;;;;;;;-2.20;99.90;;;;;;6155532;23;19916;-68
2021/03/20 05:39:34;;;;;;;;;;;-2.20;99.90;;;;;;6154934;23;19920;-67
2021/03/20 05:42:07;;;;;;;;;;;-2.30;99.90;;;;;;6154948;23;19924;-68
2021/03/20 05:44:40;;;;;;;;;;;-2.30;99.90;;;;;;6155181;23;20267;-68
2021/03/20 05:47:11;;;;;;;;;;;-2.30;99.90;;;;;;6154507;23;19938;-68
2021/03/20 05:49:44;;;;;;;;;;;-2.20;99.90;;;;;;6154988;23;19935;-67
2021/03/20 05:52:20;;;;;;;;;;;-2.20;99.90;;;;;;6155185;23;19916;-68
2021/03/20 05:54:54;;;;;;;;;;;-2.20;99.90;;;;;;6154624;23;19952;-67
2021/03/20 05:57:26;;;;;;;;;;;-2.20;99.90;;;;;;6154249;23;19920;-68
2021/03/20 05:59:54;;;;;;;;;;;-2.20;99.90;;;;;;6154906;23;19921;-67
2021/03/20 06:02:24;;;;;;;;;;;-2.20;99.90;;;;;;6155234;23;19923;-67
2021/03/20 06:04:54;;;;;;;;;;;-2.20;99.90;;;;;;6155012;23;20262;-68
2021/03/20 06:07:39;;;;;;;;;;;-2.20;99.90;;;;;;6156449;23;19979;-67
2021/03/20 06:10:17;;;;;;;;;;;-2.10;99.90;;;;;;6152423;23;19917;-68
2021/03/20 06:12:50;;;;;;;;;;;-2.10;99.90;;;;;;6154884;23;20336;-68
2021/03/20 06:15:22;;;;;;;;;;;-2.10;99.90;;;;;;6154627;23;19920;-67
2021/03/20 06:18:12;;;;;;;;;;;-2.10;99.90;;;;;;5109847;27;19912;-67
2021/03/20 06:20:45;;;;;;;;;;;-2.00;99.90;;;;;;5110117;28;19928;-66
2021/03/20 06:23:39;;;;;;;;;;;-2.00;99.90;;;;;;5109862;28;19924;-68
2021/03/20 06:26:10;;;;;;;;;;;-1.90;99.90;;;;;;5110145;28;19928;-66
2021/03/20 06:28:39;;;;;;;;;;;-1.90;99.90;;;;;;5109686;28;19994;-66
2021/03/20 06:31:07;;;;;;;;;;;-1.80;99.90;;;;;;5110541;28;19928;-66
2021/03/20 06:33:35;;;;;;;;;;;-1.70;99.90;;;;;;5110419;28;19924;-66
2021/03/20 06:36:03;;;;;;;;;;;-1.60;99.90;;;;;;5109526;28;19928;-66
2021/03/20 06:38:34;;;;;;;;;;;-1.60;99.90;;;;;;5109676;28;19924;-66
2021/03/20 06:41:05;;;;;;;;;;;-1.50;99.90;;;;;;5109803;28;19924;-67
2021/03/20 06:43:34;;;;;;;;;;;-1.30;99.90;;;;;;5109898;28;19975;-67
2021/03/20 06:46:00;;;;;;;;;;;-1.20;99.90;;;;;;5109809;28;19924;-68
2021/03/20 06:48:29;;;;;;;;;;;-1.00;99.90;;;;;;5109620;28;19954;-68
2021/03/20 06:50:57;;;;;;;;;;;-0.80;99.90;;;;;;5109509;28;19928;-69
2021/03/20 06:53:27;;;;;;;;;;;-0.70;99.90;;;;;;5109744;28;19924;-68
2021/03/20 06:55:57;;;;;;;;;;;-0.60;99.90;;;;;;5109414;28;19933;-69
2021/03/20 06:58:25;;;;;;;;;;;-0.50;99.90;;;;;;5109048;28;20340;-67
2021/03/20 07:00:51;;;;;;;;;;;-0.40;99.90;;;;;;5108959;28;19928;-68
2021/03/20 07:03:30;;;;;;;;;;;-0.40;99.90;;;;;;5109137;28;19931;-67
2021/03/20 07:06:00;;;;;;;;;;;-0.30;99.90;;;;;;5110072;28;19924;-69
2021/03/20 07:08:32;;;;;;;;;;;-0.20;99.90;;;;;;5108777;28;20044;-68
2021/03/20 07:10:58;;;;;;;;;;;-0.10;99.90;;;;;;5109072;28;19928;-68
2021/03/20 07:13:25;;;;;;;;;;;-0.10;99.90;;;;;;5108804;28;19928;-69
2021/03/20 07:16:02;;;;;;;;;;;-0.10;99.90;;;;;;5111511;28;19928;-68
2021/03/20 07:18:37;;;;;;;;;;;-0.10;99.90;;;;;;5129249;28;19924;-68
2021/03/20 07:21:18;;;;;;;;;;;0.00;99.90;;;;;;5129263;28;19992;-68
2021/03/20 07:23:50;;;;;;;;;;;0.10;99.90;;;;;;5129490;28;19931;-67
2021/03/20 07:26:17;;;;;;;;;;;0.10;99.90;;;;;;5129885;27;19931;-67
2021/03/20 07:28:47;;;;;;;;;;;0.20;99.90;;;;;;5116392;28;19924;-67
2021/03/20 07:31:13;;;;;;;;;;;0.40;99.90;;;;;;5115182;28;19931;-68
2021/03/20 07:33:42;;;;;;;;;;;0.40;99.90;;;;;;5115435;28;20449;-67
2021/03/20 07:36:21;;;;;;;;;;;0.50;99.90;;;;;;5115072;27;19979;-67
2021/03/20 07:39:02;;;;;;;;;;;0.70;99.90;;;;;;5114871;28;19924;-67
2021/03/20 07:41:41;;;;;;;;;;;0.70;99.90;;;;;;5115117;28;19931;-68
2021/03/20 07:44:07;;;;;;;;;;;0.70;99.90;;;;;;5115162;28;19977;-68
2021/03/20 07:46:34;;;;;;;;;;;0.50;99.90;;;;;;5115147;28;19924;-68
2021/03/20 07:49:01;;;;;;;;;;;0.40;99.90;;;;;;5114546;28;20360;-68
2021/03/20 07:51:43;;;;;;;;;;;0.40;99.90;;;;;;5115862;28;19931;-71
2021/03/20 07:54:19;;;;;;;;;;;0.30;99.90;;;;;;5115017;28;19924;-69
2021/03/20 07:56:45;;;;;;;;;;;0.40;99.90;;;;;;5113835;27;19928;-70
2021/03/20 07:59:15;;;;;;;;;;;0.50;99.90;;;;;;5114949;28;19923;-68
2021/03/20 08:01:41;;;;;;;;;;;0.60;99.90;;;;;;5114710;28;20303;-68
2021/03/20 08:04:08;;;;;;;;;;;0.60;99.90;;;;;;5114923;28;19923;-67
2021/03/20 08:06:42;;;;;;;;;;;0.80;99.90;;;;;;5114701;28;19924;-67
2021/03/20 08:09:09;;;;;;;;;;;0.70;99.90;;;;;;5112783;28;19935;-66
2021/03/20 08:11:35;;;;;;;;;;;0.80;99.90;;;;;;5114463;28;19988;-66
2021/03/20 08:14:04;;;;;;;;;;;0.90;99.90;;;;;;5116689;28;19981;-66
2021/03/20 08:16:30;;;;;;;;;;;1.10;99.90;;;;;;5117695;28;20269;-67
2021/03/20 08:18:57;;;;;;;;;;;1.00;99.90;;;;;;5113919;28;19931;-66
2021/03/20 08:21:50;;;;;;;;;;;1.00;99.90;;;;;;5115027;28;20296;-65
2021/03/20 08:24:31;;;;;;;;;;;1.00;99.90;;;;;;5115702;27;19923;-67
2021/03/20 08:27:09;;;;;;;;;;;1.10;99.90;;;;;;5116083;28;20292;-65
2021/03/20 08:29:46;;;;;;;;;;;1.20;99.90;;;;;;5114179;28;19927;-66
2021/03/20 08:32:16;;;;;;;;;;;1.30;99.90;;;;;;5113583;28;19924;-67
2021/03/20 08:34:48;;;;;;;;;;;1.40;99.90;;;;;;5112810;28;19942;-68
2021/03/20 08:37:23;;;;;;;;;;;1.50;99.90;;;;;;5112360;28;19950;-70
2021/03/20 08:39:57;;;;;;;;;;;1.60;99.90;;;;;;5112932;28;20345;-69
2021/03/20 08:42:30;;;;;;;;;;;1.70;99.90;;;;;;5113924;28;20327;-69
2021/03/20 08:45:07;;;;;;;;;;;1.80;99.90;;;;;;5113897;28;19924;-69
2021/03/20 08:47:48;;;;;;;;;;;1.80;99.90;;;;;;5113161;28;20519;-69
2021/03/20 08:50:19;;;;;;;;;;;2.00;99.90;;;;;;5113755;28;20544;-68
2021/03/20 08:52:49;;;;;;;;;;;2.40;99.90;;;;;;5114210;28;19943;-65
2021/03/20 08:55:39;;;;;;;;;;;2.60;99.90;;;;;;5113319;28;19928;-67
2021/03/20 08:58:11;;;;;;;;;;;2.60;99.90;;;;;;5055041;28;19952;-65
2021/03/20 09:00:40;;;;;;;;;;;2.70;99.90;;;;;;5113175;27;19931;-67
2021/03/20 09:03:10;;;;;;;;;;;2.80;99.90;;;;;;5113438;28;19931;-65
2021/03/20 09:05:38;;;;;;;;;;;3.10;99.90;;;;;;5113161;28;19924;-68
2021/03/20 09:08:09;;;;;;;;;;;3.20;99.90;;;;;;5112630;28;20003;-64
2021/03/20 09:10:38;;;;;;;;;;;3.40;99.90;;;;;;5113013;28;19954;-66
2021/03/20 09:13:11;;;;;;;;;;;3.70;99.90;;;;;;5113351;28;19977;-68
2021/03/20 09:15:39;;;;;;;;;;;3.70;99.90;;;;;;5113099;28;19931;-65
2021/03/20 09:18:05;;;;;;;;;;;3.50;99.90;;;;;;5112378;28;19928;-67
2021/03/20 09:20:39;;;;;;;;;;;3.20;99.90;;;;;;5114080;28;19931;-67
2021/03/20 09:23:06;;;;;;;;;;;3.10;99.90;;;;;;5112863;28;19950;-68
2021/03/20 09:25:34;;;;;;;;;;;3.30;99.90;;;;;;5113140;28;20338;-70
2021/03/20 09:28:05;;;;;;;;;;;3.40;99.90;;;;;;5112491;28;19924;-70
2021/03/20 09:30:32;;;;;;;;;;;3.30;99.90;;;;;;5112570;28;20265;-68
2021/03/20 09:32:59;;;;;;;;;;;3.30;99.90;;;;;;5112775;28;19976;-68
2021/03/20 09:35:27;;;;;;;;;;;3.40;99.90;;;;;;5113003;28;19935;-68
2021/03/20 09:37:55;;;;;;;;;;;3.30;99.90;;;;;;5112295;28;20363;-67
2021/03/20 09:40:40;;;;;;;;;;;3.30;99.90;;;;;;5112869;28;19974;-67
2021/03/20 09:43:24;;;;;;;;;;;3.40;99.90;;;;;;5113471;28;19923;-69
2021/03/20 09:46:05;;;;;;;;;;;3.60;99.90;;;;;;5102101;28;19924;-68
2021/03/20 09:48:41;;;;;;;;;;;3.80;99.90;;;;;;5111642;28;19927;-69
2021/03/20 09:51:22;;;;;;;;;;;3.70;99.90;;;;;;5112187;28;19949;-70
2021/03/20 09:53:48;;;;;;;;;;;3.80;99.90;;;;;;5112296;28;20338;-69
2021/03/20 09:56:32;;;;;;;;;;;3.80;99.90;;;;;;5112528;28;19924;-69
2021/03/20 09:58:59;;;;;;;;;;;3.90;99.90;;;;;;5112536;28;20316;-68
2021/03/20 10:01:46;;;;;;;;;;;4.00;99.90;;;;;;5112474;28;20026;-68
2021/03/20 10:04:21;;;;;;;;;;;4.10;99.90;;;;;;5112373;28;19963;-68
2021/03/20 10:07:09;;;;;;;;;;;4.30;99.90;;;;;;5113738;28;20301;-68
2021/03/20 10:09:50;;;;;;;;;;;4.20;99.90;;;;;;5112224;28;19935;-68
2021/03/20 10:12:18;;;;;;;;;;;4.20;99.90;;;;;;5112863;28;19924;-69
2021/03/20 10:15:12;;;;;;;;;;;4.30;99.90;;;;;;5112857;28;19930;-68
2021/03/20 10:17:53;;;;;;;;;;;4.50;99.90;;;;;;5099072;28;19924;-68
2021/03/20 10:20:20;;;;;;;;;;;4.60;99.90;;;;;;5112193;28;19969;-67
2021/03/20 10:22:49;;;;;;;;;;;4.70;99.90;;;;;;5112488;28;20342;-67
2021/03/20 10:25:16;;;;;;;;;;;4.80;99.90;;;;;;5112285;28;20461;-67
2021/03/20 10:27:47;;;;;;;;;;;4.80;99.90;;;;;;5111972;28;19924;-69
2021/03/20 10:30:14;;;;;;;;;;;4.90;99.90;;;;;;5112324;28;19968;-66
2021/03/20 10:32:54;;;;;;;;;;;5.00;99.90;;;;;;5112511;28;19959;-66
2021/03/20 10:35:20;;;;;;;;;;;5.10;99.90;;;;;;5112496;28;19931;-68
2021/03/20 10:37:46;;;;;;;;;;;5.10;99.90;;;;;;5112354;28;19924;-69
2021/03/20 10:40:14;;;;;;;;;;;5.30;99.90;;;;;;5112577;28;19924;-67
2021/03/20 10:42:42;;;;;;;;;;;5.70;99.90;;;;;;5112585;28;19927;-66
2021/03/20 10:45:14;;;;;;;;;;;6.10;99.90;;;;;;5112891;28;19924;-68
2021/03/20 10:47:42;;;;;;;;;;;6.20;99.90;;;;;;5111564;28;20450;-66
2021/03/20 10:50:22;;;;;;;;;;;6.00;99.90;;;;;;5111858;28;19924;-68
2021/03/20 10:52:50;;;;;;;;;;;5.80;99.90;;;;;;5112096;28;19924;-68
2021/03/20 10:55:17;;;;;;;;;;;5.90;99.90;;;;;;5112193;28;19928;-66
2021/03/20 10:57:44;;;;;;;;;;;5.70;99.90;;;;;;5111359;28;19924;-65
2021/03/20 11:00:17;;;;;;;;;;;5.90;99.90;;;;;;5111801;28;19930;-67
2021/03/20 11:02:43;;;;;;;;;;;5.90;99.90;;;;;;5111984;28;19928;-67
2021/03/20 11:05:11;;;;;;;;;;;5.80;99.90;;;;;;5115503;28;19923;-68
2021/03/20 11:07:44;;;;;;;;;;;5.90;99.90;;;;;;5115378;27;19924;-66
2021/03/20 11:10:11;;;;;;;;;;;5.90;99.90;;;;;;5115593;28;19976;-67
2021/03/20 11:12:37;;;;;;;;;;;5.80;99.90;;;;;;5115716;27;19928;-67
2021/03/20 11:15:05;;;;;;;;;;;5.80;99.90;;;;;;5115646;28;19949;-68
2021/03/20 11:17:32;;;;;;;;;;;5.80;99.90;;;;;;5114701;28;19924;-67
2021/03/20 11:19:59;;;;;;;;;;;5.80;99.90;;;;;;5115116;28;20384;-68
2021/03/20 11:22:26;;;;;;;;;;;5.60;99.90;;;;;;5115185;28;19928;-66
2021/03/20 11:24:53;;;;;;;;;;;5.60;99.90;;;;;;5115369;28;20300;-66
2021/03/20 11:27:20;;;;;;;;;;;5.70;99.90;;;;;;5114889;28;19924;-67
2021/03/20 11:29:48;;;;;;;;;;;5.90;99.90;;;;;;5114909;28;19928;-67
2021/03/20 11:32:23;;;;;;;;;;;5.80;99.90;;;;;;5115681;28;19924;-66
2021/03/20 11:34:50;;;;;;;;;;;5.70;99.90;;;;;;5115212;28;19924;-67
2021/03/20 11:37:19;;;;;;;;;;;5.80;99.90;;;;;;5114922;28;19931;-66
2021/03/20 11:39:45;;;;;;;;;;;5.90;99.90;;;;;;5114781;27;19928;-67
2021/03/20 11:42:12;;;;;;;;;;;6.00;99.90;;;;;;5114960;28;19930;-66
2021/03/20 11:44:42;;;;;;;;;;;6.10;99.90;;;;;;5115287;28;19931;-66
2021/03/20 11:47:18;;;;;;;;;;;6.30;99.90;;;;;;5114505;28;19931;-66
2021/03/20 11:49:47;;;;;;;;;;;6.20;99.90;;;;;;5114866;28;19984;-66
2021/03/20 11:52:14;;;;;;;;;;;6.30;99.90;;;;;;5114878;28;19923;-66
2021/03/20 11:54:40;;;;;;;;;;;6.40;99.90;;;;;;5114552;28;19932;-66
2021/03/20 11:57:14;;;;;;;;;;;6.30;99.90;;;;;;5114139;28;20380;-68
2021/03/20 11:59:41;;;;;;;;;;;6.30;99.90;;;;;;5114878;28;19931;-67
2021/03/20 12:02:10;;;;;;;;;;;6.30;99.90;;;;;;5114848;28;19924;-68
2021/03/20 12:04:36;;;;;;;;;;;6.20;99.90;;;;;;5115657;28;20581;-68
2021/03/20 12:07:20;;;;;;;;;;;6.60;99.90;;;;;;5115080;28;19924;-69
2021/03/20 12:09:46;;;;;;;;;;;6.80;99.90;;;;;;5117537;28;20408;-69
2021/03/20 12:12:12;;;;;;;;;;;6.70;99.90;;;;;;5116166;28;20016;-69
2021/03/20 12:14:39;;;;;;;;;;;6.80;99.90;;;;;;5115920;28;20037;-68
2021/03/20 12:17:06;;;;;;;;;;;6.40;99.90;;;;;;5114434;28;19928;-69
2021/03/20 12:19:33;;;;;;;;;;;6.50;99.90;;;;;;5114044;28;19969;-70
2021/03/20 12:22:04;;;;;;;;;;;6.60;99.90;;;;;;5114552;28;19934;-70
2021/03/20 12:24:32;;;;;;;;;;;6.50;99.90;;;;;;5115165;27;20300;-67
2021/03/20 12:27:13;;;;;;;;;;;6.70;99.90;;;;;;5115834;28;19931;-68
2021/03/20 12:29:42;;;;;;;;;;;6.70;99.90;;;;;;5115049;28;20342;-67
2021/03/20 12:32:19;;;;;;;;;;;6.80;99.90;;;;;;5114360;28;20424;-67
2021/03/20 12:34:45;;;;;;;;;;;6.60;99.90;;;;;;5115508;28;19943;-67
2021/03/20 12:37:16;;;;;;;;;;;6.50;99.90;;;;;;5115368;28;19928;-67
2021/03/20 12:39:43;;;;;;;;;;;6.50;99.90;;;;;;5116960;28;19923;-66
2021/03/20 12:42:09;;;;;;;;;;;6.30;99.90;;;;;;5114571;28;19924;-67
2021/03/20 12:44:41;;;;;;;;;;;6.10;99.90;;;;;;5114003;28;19927;-68
2021/03/20 12:47:07;;;;;;;;;;;6.30;99.90;;;;;;5113454;28;19932;-67
2021/03/20 12:49:34;;;;;;;;;;;6.50;99.90;;;;;;5101372;28;19931;-68
2021/03/20 12:52:00;;;;;;;;;;;6.60;99.90;;;;;;5093763;28;19928;-69
2021/03/20 12:54:28;;;;;;;;;;;6.80;99.90;;;;;;5113635;28;19976;-66
2021/03/20 12:56:55;;;;;;;;;;;6.90;99.90;;;;;;5113248;28;19924;-67
2021/03/20 12:59:21;;;;;;;;;;;6.90;99.90;;;;;;5112897;28;20292;-69
2021/03/20 13:01:47;;;;;;;;;;;7.10;99.90;;;;;;5113558;28;19969;-68
2021/03/20 13:04:14;;;;;;;;;;;7.30;99.90;;;;;;5113543;28;19927;-69
2021/03/20 13:06:40;;;;;;;;;;;7.30;99.90;;;;;;5113938;28;20501;-71
2021/03/20 13:09:06;;;;;;;;;;;7.20;99.90;;;;;;5112452;28;19980;-68
2021/03/20 13:11:32;;;;;;;;;;;7.20;99.90;;;;;;5112975;28;19923;-68
2021/03/20 13:14:00;;;;;;;;;;;7.10;99.90;;;;;;5113150;28;20620;-69
2021/03/20 13:16:26;;;;;;;;;;;7.10;99.90;;;;;;5112783;28;20555;-70
2021/03/20 13:18:52;;;;;;;;;;;7.20;99.90;;;;;;5111991;28;19924;-69
2021/03/20 13:21:18;;;;;;;;;;;7.20;99.90;;;;;;5112911;28;19942;-68
2021/03/20 13:23:44;;;;;;;;;;;7.30;99.90;;;;;;5112956;28;20455;-66
2021/03/20 13:26:10;;;;;;;;;;;7.50;99.90;;;;;;5112256;28;19966;-68
2021/03/20 13:28:37;;;;;;;;;;;7.80;99.90;;;;;;5112256;28;20594;-67
2021/03/20 13:31:04;;;;;;;;;;;8.00;99.90;;;;;;5112990;28;19924;-64
2021/03/20 13:33:30;;;;;;;;;;;8.10;99.90;;;;;;5112932;28;19931;-66
2021/03/20 13:35:56;;;;;;;;;;;7.80;99.90;;;;;;5112889;28;19928;-66
2021/03/20 13:38:22;;;;;;;;;;;8.00;99.90;;;;;;5111847;28;19928;-67
2021/03/20 13:40:49;;;;;;;;;;;8.10;99.90;;;;;;5112496;28;20335;-67
2021/03/20 13:43:16;;;;;;;;;;;8.10;99.90;;;;;;5112810;28;20042;-67
2021/03/20 13:45:42;;;;;;;;;;;8.00;99.90;;;;;;5112656;28;19931;-66
2021/03/20 13:48:10;;;;;;;;;;;8.10;99.90;;;;;;5112124;28;19930;-67
2021/03/20 13:50:37;;;;;;;;;;;8.20;99.90;;;;;;5112795;28;19935;-66
2021/03/20 13:53:04;;;;;;;;;;;8.20;99.90;;;;;;5112991;28;19924;-65
2021/03/20 13:55:30;;;;;;;;;;;8.20;99.90;;;;;;5112229;28;19923;-66
2021/03/20 13:57:56;;;;;;;;;;;8.20;99.90;;;;;;5111955;28;20360;-66
2021/03/20 14:00:22;;;;;;;;;;;8.30;99.90;;;;;;5112272;28;20380;-67
2021/03/20 14:02:48;;;;;;;;;;;8.10;99.90;;;;;;5112664;28;19923;-67
2021/03/20 14:05:15;;;;;;;;;;;8.10;99.90;;;;;;5112595;28;19958;-67
2021/03/20 14:07:43;;;;;;;;;;;8.00;99.90;;;;;;5111783;28;19924;-66
2021/03/20 14:10:11;;;;;;;;;;;8.00;99.90;;;;;;5111788;28;19942;-68
2021/03/20 14:12:37;;;;;;;;;;;8.30;99.90;;;;;;5114331;28;19924;-68
2021/03/20 14:15:03;;;;;;;;;;;8.50;99.90;;;;;;5115165;28;19924;-68
2021/03/20 14:17:29;;;;;;;;;;;8.40;99.90;;;;;;5114854;28;19947;-67
2021/03/20 14:19:57;;;;;;;;;;;8.50;99.90;;;;;;5112833;28;19932;-68
2021/03/20 14:22:24;;;;;;;;;;;8.20;99.90;;;;;;5112487;28;19924;-68
2021/03/20 14:24:50;;;;;;;;;;;8.20;99.90;;;;;;5111924;28;20342;-69
2021/03/20 14:27:16;;;;;;;;;;;8.30;99.90;;;;;;5111935;28;20384;-69
2021/03/20 14:29:42;;;;;;;;;;;8.20;99.90;;;;;;5110964;28;19924;-68
2021/03/20 14:32:09;;;;;;;;;;;8.30;99.90;;;;;;5112182;28;20383;-69
2021/03/20 14:34:35;;;;;;;;;;;8.30;99.90;;;;;;5111931;28;19931;-70
2021/03/20 14:37:01;;;;;;;;;;;8.40;99.90;;;;;;5111900;28;19923;-69
2021/03/20 14:39:28;;;;;;;;;;;8.50;99.90;;;;;;5114533;28;19924;-68